sensor_id;sensor_type;location;lat;lon;timestamp;P1;durP1;ratioP1;P2;durP2;ratioP2
47589;SDS011;33316;52.298;9.056;2023-02-12T00:01:38;8.05;;;3.28;;
47589;SDS011;33316;52.298;9.056;2023-02-12T00:04:05;6.03;;;3.42;;
47589;SDS011;33316;52.298;9.056;2023-02-12T00:06:31;6.25;;;3.55;;
47589;SDS011;33316;52.298;9.056;2023-02-12T00:09:03;9.38;;;3.55;;
47589;SDS011;33316;52.298;9.056;2023-02-12T00:11:30;7.90;;;3.55;;
47589;SDS011;33316;52.298;9.056;2023-02-12T00:14:03;5.70;;;3.30;;
47589;SDS011;33316;52.298;9.056;2023-02-12T00:16:29;9.68;;;3.88;;
47589;SDS011;33316;52.298;9.056;2023-02-12T00:18:58;6.25;;;3.92;;
47589;SDS011;33316;52.298;9.056;2023-02-12T00:21:36;8.98;;;3.75;;
47589;SDS011;33316;52.298;9.056;2023-02-12T00:24:10;6.00;;;3.30;;
47589;SDS011;33316;52.298;9.056;2023-02-12T00:26:38;5.43;;;2.85;;
47589;SDS011;33316;52.298;9.056;2023-02-12T00:29:05;5.30;;;2.78;;
47589;SDS011;33316;52.298;9.056;2023-02-12T00:31:32;5.82;;;2.65;;
47589;SDS011;33316;52.298;9.056;2023-02-12T00:33:58;6.78;;;3.03;;
47589;SDS011;33316;52.298;9.056;2023-02-12T00:36:36;5.95;;;2.90;;
47589;SDS011;33316;52.298;9.056;2023-02-12T00:39:04;6.07;;;2.78;;
47589;SDS011;33316;52.298;9.056;2023-02-12T00:41:35;6.03;;;2.65;;
47589;SDS011;33316;52.298;9.056;2023-02-12T00:46:31;4.35;;;2.30;;
47589;SDS011;33316;52.298;9.056;2023-02-12T00:48:58;5.57;;;2.50;;
47589;SDS011;33316;52.298;9.056;2023-02-12T00:51:25;4.90;;;2.63;;
47589;SDS011;33316;52.298;9.056;2023-02-12T00:53:54;6.03;;;2.67;;
47589;SDS011;33316;52.298;9.056;2023-02-12T00:56:20;6.05;;;3.30;;
47589;SDS011;33316;52.298;9.056;2023-02-12T00:58:50;6.88;;;3.03;;
47589;SDS011;33316;52.298;9.056;2023-02-12T01:01:17;5.03;;;3.10;;
47589;SDS011;33316;52.298;9.056;2023-02-12T01:03:46;6.05;;;2.97;;
47589;SDS011;33316;52.298;9.056;2023-02-12T01:06:16;6.38;;;3.40;;
47589;SDS011;33316;52.298;9.056;2023-02-12T01:08:43;6.22;;;3.30;;
47589;SDS011;33316;52.298;9.056;2023-02-12T01:11:18;6.13;;;3.08;;
47589;SDS011;33316;52.298;9.056;2023-02-12T01:13:45;8.02;;;3.70;;
47589;SDS011;33316;52.298;9.056;2023-02-12T01:16:17;7.95;;;3.63;;
47589;SDS011;33316;52.298;9.056;2023-02-12T01:18:45;5.97;;;3.28;;
47589;SDS011;33316;52.298;9.056;2023-02-12T01:21:13;7.10;;;3.28;;
47589;SDS011;33316;52.298;9.056;2023-02-12T01:23:41;6.50;;;3.83;;
47589;SDS011;33316;52.298;9.056;2023-02-12T01:26:10;6.78;;;3.83;;
47589;SDS011;33316;52.298;9.056;2023-02-12T01:28:44;7.88;;;4.63;;
47589;SDS011;33316;52.298;9.056;2023-02-12T01:31:19;7.28;;;3.85;;
47589;SDS011;33316;52.298;9.056;2023-02-12T01:33:54;8.07;;;4.57;;
47589;SDS011;33316;52.298;9.056;2023-02-12T01:36:22;6.82;;;3.80;;
47589;SDS011;33316;52.298;9.056;2023-02-12T01:38:53;6.07;;;3.95;;
47589;SDS011;33316;52.298;9.056;2023-02-12T01:41:28;7.05;;;3.78;;
47589;SDS011;33316;52.298;9.056;2023-02-12T01:44:13;7.63;;;4.10;;
47589;SDS011;33316;52.298;9.056;2023-02-12T01:46:58;7.97;;;3.95;;
47589;SDS011;33316;52.298;9.056;2023-02-12T01:49:29;8.40;;;4.55;;
47589;SDS011;33316;52.298;9.056;2023-02-12T01:51:59;8.98;;;4.55;;
47589;SDS011;33316;52.298;9.056;2023-02-12T01:54:33;8.32;;;4.32;;
47589;SDS011;33316;52.298;9.056;2023-02-12T01:57:04;7.32;;;4.90;;
47589;SDS011;33316;52.298;9.056;2023-02-12T01:59:33;8.52;;;5.25;;
47589;SDS011;33316;52.298;9.056;2023-02-12T02:02:05;7.80;;;4.80;;
47589;SDS011;33316;52.298;9.056;2023-02-12T02:04:35;8.23;;;4.75;;
47589;SDS011;33316;52.298;9.056;2023-02-12T02:07:05;9.73;;;5.00;;
47589;SDS011;33316;52.298;9.056;2023-02-12T02:09:36;8.25;;;5.18;;
47589;SDS011;33316;52.298;9.056;2023-02-12T02:15:17;11.52;;;5.82;;
47589;SDS011;33316;52.298;9.056;2023-02-12T02:17:50;9.93;;;6.05;;
47589;SDS011;33316;52.298;9.056;2023-02-12T02:20:39;8.73;;;4.95;;
47589;SDS011;33316;52.298;9.056;2023-02-12T02:23:32;9.93;;;4.97;;
47589;SDS011;33316;52.298;9.056;2023-02-12T02:29:39;11.20;;;5.40;;
47589;SDS011;33316;52.298;9.056;2023-02-12T02:32:20;9.20;;;4.55;;
47589;SDS011;33316;52.298;9.056;2023-02-12T02:34:51;9.55;;;5.88;;
47589;SDS011;33316;52.298;9.056;2023-02-12T02:37:25;12.77;;;6.22;;
47589;SDS011;33316;52.298;9.056;2023-02-12T02:39:56;9.88;;;6.00;;
47589;SDS011;33316;52.298;9.056;2023-02-12T02:42:31;7.97;;;4.90;;
47589;SDS011;33316;52.298;9.056;2023-02-12T02:45:04;10.23;;;5.55;;
47589;SDS011;33316;52.298;9.056;2023-02-12T02:47:39;11.05;;;5.65;;
47589;SDS011;33316;52.298;9.056;2023-02-12T02:50:10;9.77;;;5.53;;
47589;SDS011;33316;52.298;9.056;2023-02-12T02:52:40;11.43;;;6.20;;
47589;SDS011;33316;52.298;9.056;2023-02-12T02:55:26;12.13;;;6.72;;
47589;SDS011;33316;52.298;9.056;2023-02-12T02:58:00;10.32;;;6.05;;
47589;SDS011;33316;52.298;9.056;2023-02-12T03:00:36;7.55;;;5.07;;
47589;SDS011;33316;52.298;9.056;2023-02-12T03:03:07;9.35;;;6.00;;
47589;SDS011;33316;52.298;9.056;2023-02-12T03:05:41;11.55;;;7.05;;
47589;SDS011;33316;52.298;9.056;2023-02-12T03:08:12;9.75;;;6.18;;
47589;SDS011;33316;52.298;9.056;2023-02-12T03:10:44;14.10;;;7.47;;
47589;SDS011;33316;52.298;9.056;2023-02-12T03:13:15;16.13;;;7.25;;
47589;SDS011;33316;52.298;9.056;2023-02-12T03:15:50;10.50;;;6.55;;
47589;SDS011;33316;52.298;9.056;2023-02-12T03:18:23;12.75;;;6.05;;
47589;SDS011;33316;52.298;9.056;2023-02-12T03:21:00;9.25;;;5.38;;
47589;SDS011;33316;52.298;9.056;2023-02-12T03:23:31;11.40;;;6.18;;
47589;SDS011;33316;52.298;9.056;2023-02-12T03:26:05;14.95;;;6.85;;
47589;SDS011;33316;52.298;9.056;2023-02-12T03:28:37;11.10;;;6.47;;
47589;SDS011;33316;52.298;9.056;2023-02-12T03:31:06;13.23;;;6.38;;
47589;SDS011;33316;52.298;9.056;2023-02-12T03:33:48;12.82;;;6.47;;
47589;SDS011;33316;52.298;9.056;2023-02-12T03:36:29;11.43;;;6.80;;
47589;SDS011;33316;52.298;9.056;2023-02-12T03:39:04;11.93;;;7.15;;
47589;SDS011;33316;52.298;9.056;2023-02-12T03:41:38;12.50;;;6.65;;
47589;SDS011;33316;52.298;9.056;2023-02-12T03:44:14;12.88;;;7.60;;
47589;SDS011;33316;52.298;9.056;2023-02-12T03:46:54;11.55;;;7.13;;
47589;SDS011;33316;52.298;9.056;2023-02-12T03:49:33;10.75;;;7.07;;
47589;SDS011;33316;52.298;9.056;2023-02-12T03:52:07;10.93;;;6.97;;
47589;SDS011;33316;52.298;9.056;2023-02-12T03:54:39;11.57;;;7.22;;
47589;SDS011;33316;52.298;9.056;2023-02-12T03:57:06;12.63;;;7.30;;
47589;SDS011;33316;52.298;9.056;2023-02-12T03:59:37;15.00;;;8.15;;
47589;SDS011;33316;52.298;9.056;2023-02-12T04:02:05;15.65;;;7.95;;
47589;SDS011;33316;52.298;9.056;2023-02-12T04:04:33;12.20;;;7.88;;
47589;SDS011;33316;52.298;9.056;2023-02-12T04:07:01;15.13;;;9.10;;
47589;SDS011;33316;52.298;9.056;2023-02-12T04:09:28;15.35;;;8.90;;
47589;SDS011;33316;52.298;9.056;2023-02-12T04:11:59;15.85;;;9.98;;
47589;SDS011;33316;52.298;9.056;2023-02-12T04:14:40;19.58;;;10.52;;
47589;SDS011;33316;52.298;9.056;2023-02-12T04:17:20;17.15;;;10.20;;
47589;SDS011;33316;52.298;9.056;2023-02-12T04:19:57;15.07;;;9.13;;
47589;SDS011;33316;52.298;9.056;2023-02-12T04:22:54;19.52;;;10.48;;
47589;SDS011;33316;52.298;9.056;2023-02-12T04:25:39;14.98;;;9.15;;
47589;SDS011;33316;52.298;9.056;2023-02-12T04:28:12;16.17;;;9.18;;
47589;SDS011;33316;52.298;9.056;2023-02-12T04:30:51;15.45;;;8.80;;
47589;SDS011;33316;52.298;9.056;2023-02-12T04:33:24;18.40;;;9.23;;
47589;SDS011;33316;52.298;9.056;2023-02-12T04:35:58;15.30;;;8.60;;
47589;SDS011;33316;52.298;9.056;2023-02-12T04:38:33;18.90;;;8.98;;
47589;SDS011;33316;52.298;9.056;2023-02-12T04:41:06;14.50;;;8.68;;
47589;SDS011;33316;52.298;9.056;2023-02-12T04:43:35;16.35;;;8.70;;
47589;SDS011;33316;52.298;9.056;2023-02-12T04:46:02;19.17;;;9.77;;
47589;SDS011;33316;52.298;9.056;2023-02-12T04:48:34;16.67;;;9.25;;
47589;SDS011;33316;52.298;9.056;2023-02-12T04:51:12;17.60;;;9.02;;
47589;SDS011;33316;52.298;9.056;2023-02-12T04:53:42;13.30;;;7.90;;
47589;SDS011;33316;52.298;9.056;2023-02-12T04:56:10;14.73;;;7.90;;
47589;SDS011;33316;52.298;9.056;2023-02-12T04:58:39;16.58;;;8.88;;
47589;SDS011;33316;52.298;9.056;2023-02-12T05:01:12;14.98;;;8.95;;
47589;SDS011;33316;52.298;9.056;2023-02-12T05:03:38;14.85;;;8.55;;
47589;SDS011;33316;52.298;9.056;2023-02-12T05:06:06;18.55;;;9.30;;
47589;SDS011;33316;52.298;9.056;2023-02-12T05:08:37;15.32;;;8.52;;
47589;SDS011;33316;52.298;9.056;2023-02-12T05:11:06;14.48;;;8.65;;
47589;SDS011;33316;52.298;9.056;2023-02-12T05:13:40;14.30;;;8.20;;
47589;SDS011;33316;52.298;9.056;2023-02-12T05:16:07;15.82;;;7.72;;
47589;SDS011;33316;52.298;9.056;2023-02-12T05:18:34;15.85;;;7.50;;
47589;SDS011;33316;52.298;9.056;2023-02-12T05:21:01;15.77;;;7.80;;
47589;SDS011;33316;52.298;9.056;2023-02-12T05:23:30;12.57;;;6.95;;
47589;SDS011;33316;52.298;9.056;2023-02-12T05:25:59;11.50;;;7.07;;
47589;SDS011;33316;52.298;9.056;2023-02-12T05:28:27;13.80;;;7.75;;
47589;SDS011;33316;52.298;9.056;2023-02-12T05:30:54;15.05;;;8.05;;
47589;SDS011;33316;52.298;9.056;2023-02-12T05:33:24;15.88;;;8.50;;
47589;SDS011;33316;52.298;9.056;2023-02-12T05:35:51;15.00;;;8.23;;
47589;SDS011;33316;52.298;9.056;2023-02-12T05:38:17;12.95;;;7.50;;
47589;SDS011;33316;52.298;9.056;2023-02-12T05:40:44;15.07;;;7.25;;
47589;SDS011;33316;52.298;9.056;2023-02-12T05:43:12;10.18;;;7.28;;
47589;SDS011;33316;52.298;9.056;2023-02-12T05:45:39;11.73;;;6.93;;
47589;SDS011;33316;52.298;9.056;2023-02-12T05:48:08;14.25;;;7.75;;
47589;SDS011;33316;52.298;9.056;2023-02-12T05:50:35;13.13;;;7.53;;
47589;SDS011;33316;52.298;9.056;2023-02-12T05:53:02;11.93;;;7.57;;
47589;SDS011;33316;52.298;9.056;2023-02-12T05:55:29;13.05;;;7.47;;
47589;SDS011;33316;52.298;9.056;2023-02-12T05:57:55;14.68;;;9.18;;
47589;SDS011;33316;52.298;9.056;2023-02-12T06:00:24;14.75;;;8.70;;
47589;SDS011;33316;52.298;9.056;2023-02-12T06:02:50;14.27;;;7.85;;
47589;SDS011;33316;52.298;9.056;2023-02-12T06:05:17;18.50;;;8.48;;
47589;SDS011;33316;52.298;9.056;2023-02-12T06:07:44;16.60;;;8.60;;
47589;SDS011;33316;52.298;9.056;2023-02-12T06:10:10;14.40;;;8.45;;
47589;SDS011;33316;52.298;9.056;2023-02-12T06:12:37;13.93;;;7.90;;
47589;SDS011;33316;52.298;9.056;2023-02-12T06:15:04;13.75;;;8.48;;
47589;SDS011;33316;52.298;9.056;2023-02-12T06:17:33;13.70;;;7.65;;
47589;SDS011;33316;52.298;9.056;2023-02-12T06:20:00;13.10;;;7.32;;
47589;SDS011;33316;52.298;9.056;2023-02-12T06:22:27;15.00;;;8.32;;
47589;SDS011;33316;52.298;9.056;2023-02-12T06:24:54;13.57;;;7.82;;
47589;SDS011;33316;52.298;9.056;2023-02-12T06:27:20;14.93;;;8.20;;
47589;SDS011;33316;52.298;9.056;2023-02-12T06:29:47;13.82;;;7.70;;
47589;SDS011;33316;52.298;9.056;2023-02-12T06:32:14;11.50;;;7.07;;
47589;SDS011;33316;52.298;9.056;2023-02-12T06:34:42;12.68;;;7.18;;
47589;SDS011;33316;52.298;9.056;2023-02-12T06:37:08;13.25;;;7.20;;
47589;SDS011;33316;52.298;9.056;2023-02-12T06:39:36;13.18;;;6.93;;
47589;SDS011;33316;52.298;9.056;2023-02-12T06:42:03;14.55;;;7.18;;
47589;SDS011;33316;52.298;9.056;2023-02-12T06:44:30;12.98;;;7.07;;
47589;SDS011;33316;52.298;9.056;2023-02-12T06:46:57;13.23;;;7.18;;
47589;SDS011;33316;52.298;9.056;2023-02-12T06:49:23;12.00;;;6.40;;
47589;SDS011;33316;52.298;9.056;2023-02-12T06:51:51;12.25;;;6.60;;
47589;SDS011;33316;52.298;9.056;2023-02-12T06:54:18;12.95;;;7.75;;
47589;SDS011;33316;52.298;9.056;2023-02-12T06:56:45;13.35;;;7.25;;
47589;SDS011;33316;52.298;9.056;2023-02-12T06:59:12;10.90;;;6.63;;
47589;SDS011;33316;52.298;9.056;2023-02-12T07:01:40;12.20;;;7.03;;
47589;SDS011;33316;52.298;9.056;2023-02-12T07:04:06;14.75;;;6.88;;
47589;SDS011;33316;52.298;9.056;2023-02-12T07:06:34;11.63;;;6.57;;
47589;SDS011;33316;52.298;9.056;2023-02-12T07:09:02;12.15;;;6.85;;
47589;SDS011;33316;52.298;9.056;2023-02-12T07:11:30;11.60;;;6.75;;
47589;SDS011;33316;52.298;9.056;2023-02-12T07:13:58;11.50;;;6.40;;
47589;SDS011;33316;52.298;9.056;2023-02-12T07:16:25;11.40;;;6.70;;
47589;SDS011;33316;52.298;9.056;2023-02-12T07:18:53;13.40;;;7.15;;
47589;SDS011;33316;52.298;9.056;2023-02-12T07:21:20;11.90;;;7.60;;
47589;SDS011;33316;52.298;9.056;2023-02-12T07:23:47;12.93;;;6.88;;
47589;SDS011;33316;52.298;9.056;2023-02-12T07:26:16;11.82;;;7.20;;
47589;SDS011;33316;52.298;9.056;2023-02-12T07:28:44;12.40;;;7.60;;
47589;SDS011;33316;52.298;9.056;2023-02-12T07:31:11;14.30;;;7.85;;
47589;SDS011;33316;52.298;9.056;2023-02-12T07:33:40;13.38;;;8.30;;
47589;SDS011;33316;52.298;9.056;2023-02-12T07:36:08;12.15;;;8.48;;
47589;SDS011;33316;52.298;9.056;2023-02-12T07:38:36;13.32;;;8.52;;
47589;SDS011;33316;52.298;9.056;2023-02-12T07:41:08;13.23;;;7.97;;
47589;SDS011;33316;52.298;9.056;2023-02-12T07:43:38;10.68;;;7.60;;
47589;SDS011;33316;52.298;9.056;2023-02-12T07:46:09;11.05;;;7.00;;
47589;SDS011;33316;52.298;9.056;2023-02-12T07:48:37;12.13;;;7.65;;
47589;SDS011;33316;52.298;9.056;2023-02-12T07:51:08;13.65;;;7.95;;
47589;SDS011;33316;52.298;9.056;2023-02-12T07:53:35;11.48;;;7.25;;
47589;SDS011;33316;52.298;9.056;2023-02-12T07:56:03;12.65;;;8.68;;
47589;SDS011;33316;52.298;9.056;2023-02-12T07:58:31;12.63;;;8.10;;
47589;SDS011;33316;52.298;9.056;2023-02-12T08:01:09;13.73;;;8.05;;
47589;SDS011;33316;52.298;9.056;2023-02-12T08:03:36;14.60;;;8.35;;
47589;SDS011;33316;52.298;9.056;2023-02-12T08:06:05;15.80;;;9.07;;
47589;SDS011;33316;52.298;9.056;2023-02-12T08:08:33;12.15;;;7.82;;
47589;SDS011;33316;52.298;9.056;2023-02-12T08:11:02;13.30;;;8.57;;
47589;SDS011;33316;52.298;9.056;2023-02-12T08:13:30;14.45;;;8.20;;
47589;SDS011;33316;52.298;9.056;2023-02-12T08:16:00;14.00;;;8.10;;
47589;SDS011;33316;52.298;9.056;2023-02-12T08:18:27;11.80;;;7.93;;
47589;SDS011;33316;52.298;9.056;2023-02-12T08:20:59;10.38;;;7.85;;
47589;SDS011;33316;52.298;9.056;2023-02-12T08:23:27;12.70;;;7.93;;
47589;SDS011;33316;52.298;9.056;2023-02-12T08:25:54;11.85;;;7.35;;
47589;SDS011;33316;52.298;9.056;2023-02-12T08:28:21;12.15;;;7.53;;
47589;SDS011;33316;52.298;9.056;2023-02-12T08:30:48;12.35;;;8.00;;
47589;SDS011;33316;52.298;9.056;2023-02-12T08:33:16;13.45;;;8.35;;
47589;SDS011;33316;52.298;9.056;2023-02-12T08:35:42;12.07;;;7.18;;
47589;SDS011;33316;52.298;9.056;2023-02-12T08:38:09;11.88;;;7.60;;
47589;SDS011;33316;52.298;9.056;2023-02-12T08:40:37;11.27;;;7.40;;
47589;SDS011;33316;52.298;9.056;2023-02-12T08:43:04;11.07;;;7.35;;
47589;SDS011;33316;52.298;9.056;2023-02-12T08:45:31;12.95;;;7.63;;
47589;SDS011;33316;52.298;9.056;2023-02-12T08:47:58;11.23;;;7.03;;
47589;SDS011;33316;52.298;9.056;2023-02-12T08:50:26;11.48;;;6.97;;
47589;SDS011;33316;52.298;9.056;2023-02-12T08:52:52;11.23;;;6.80;;
47589;SDS011;33316;52.298;9.056;2023-02-12T08:55:21;12.10;;;7.88;;
47589;SDS011;33316;52.298;9.056;2023-02-12T08:57:47;11.15;;;7.32;;
47589;SDS011;33316;52.298;9.056;2023-02-12T09:00:14;9.77;;;6.38;;
47589;SDS011;33316;52.298;9.056;2023-02-12T09:02:44;9.90;;;6.65;;
47589;SDS011;33316;52.298;9.056;2023-02-12T09:05:16;9.65;;;6.55;;
47589;SDS011;33316;52.298;9.056;2023-02-12T09:07:47;9.27;;;6.88;;
47589;SDS011;33316;52.298;9.056;2023-02-12T09:10:14;12.65;;;8.23;;
47589;SDS011;33316;52.298;9.056;2023-02-12T09:12:41;10.18;;;7.35;;
47589;SDS011;33316;52.298;9.056;2023-02-12T09:15:08;11.52;;;7.97;;
47589;SDS011;33316;52.298;9.056;2023-02-12T09:17:36;12.85;;;8.18;;
47589;SDS011;33316;52.298;9.056;2023-02-12T09:20:05;11.40;;;7.30;;
47589;SDS011;33316;52.298;9.056;2023-02-12T09:22:35;11.05;;;7.30;;
47589;SDS011;33316;52.298;9.056;2023-02-12T09:25:04;12.95;;;7.80;;
47589;SDS011;33316;52.298;9.056;2023-02-12T09:27:31;11.52;;;7.22;;
47589;SDS011;33316;52.298;9.056;2023-02-12T09:29:58;9.32;;;6.47;;
47589;SDS011;33316;52.298;9.056;2023-02-12T09:32:24;13.68;;;8.23;;
47589;SDS011;33316;52.298;9.056;2023-02-12T09:34:51;12.82;;;8.40;;
47589;SDS011;33316;52.298;9.056;2023-02-12T09:37:18;12.80;;;8.63;;
47589;SDS011;33316;52.298;9.056;2023-02-12T09:39:44;10.82;;;7.60;;
47589;SDS011;33316;52.298;9.056;2023-02-12T09:42:25;13.63;;;8.27;;
47589;SDS011;33316;52.298;9.056;2023-02-12T09:45:01;16.02;;;9.98;;
47589;SDS011;33316;52.298;9.056;2023-02-12T09:47:38;15.05;;;9.68;;
47589;SDS011;33316;52.298;9.056;2023-02-12T09:50:12;13.27;;;9.60;;
47589;SDS011;33316;52.298;9.056;2023-02-12T09:52:52;14.60;;;9.73;;
47589;SDS011;33316;52.298;9.056;2023-02-12T09:55:22;15.70;;;10.20;;
47589;SDS011;33316;52.298;9.056;2023-02-12T10:00:21;12.25;;;7.82;;
47589;SDS011;33316;52.298;9.056;2023-02-12T10:05:22;12.32;;;7.65;;
47589;SDS011;33316;52.298;9.056;2023-02-12T10:07:58;14.00;;;8.18;;
47589;SDS011;33316;52.298;9.056;2023-02-12T10:10:42;13.45;;;9.20;;
47589;SDS011;33316;52.298;9.056;2023-02-12T10:13:19;15.52;;;10.02;;
47589;SDS011;33316;52.298;9.056;2023-02-12T10:21:26;10.18;;;6.97;;
47589;SDS011;33316;52.298;9.056;2023-02-12T10:24:10;13.23;;;8.00;;
47589;SDS011;33316;52.298;9.056;2023-02-12T10:26:57;13.40;;;8.73;;
47589;SDS011;33316;52.298;9.056;2023-02-12T10:29:33;13.80;;;9.10;;
47589;SDS011;33316;52.298;9.056;2023-02-12T10:32:09;13.45;;;9.25;;
47589;SDS011;33316;52.298;9.056;2023-02-12T10:34:41;16.65;;;9.95;;
47589;SDS011;33316;52.298;9.056;2023-02-12T10:37:20;15.50;;;10.57;;
47589;SDS011;33316;52.298;9.056;2023-02-12T10:42:23;13.05;;;8.35;;
47589;SDS011;33316;52.298;9.056;2023-02-12T10:45:02;15.13;;;9.73;;
47589;SDS011;33316;52.298;9.056;2023-02-12T10:47:29;14.60;;;9.48;;
47589;SDS011;33316;52.298;9.056;2023-02-12T10:49:56;12.15;;;8.48;;
47589;SDS011;33316;52.298;9.056;2023-02-12T10:52:29;13.63;;;9.38;;
47589;SDS011;33316;52.298;9.056;2023-02-12T10:55:05;13.35;;;9.00;;
47589;SDS011;33316;52.298;9.056;2023-02-12T10:57:53;11.43;;;8.40;;
47589;SDS011;33316;52.298;9.056;2023-02-12T11:00:26;10.82;;;7.88;;
47589;SDS011;33316;52.298;9.056;2023-02-12T11:02:59;16.30;;;9.55;;
47589;SDS011;33316;52.298;9.056;2023-02-12T11:05:30;13.65;;;9.15;;
47589;SDS011;33316;52.298;9.056;2023-02-12T11:07:59;14.10;;;9.50;;
47589;SDS011;33316;52.298;9.056;2023-02-12T11:10:27;12.00;;;8.77;;
47589;SDS011;33316;52.298;9.056;2023-02-12T11:12:55;13.43;;;9.23;;
47589;SDS011;33316;52.298;9.056;2023-02-12T11:15:23;12.38;;;8.23;;
47589;SDS011;33316;52.298;9.056;2023-02-12T11:17:55;15.40;;;9.32;;
47589;SDS011;33316;52.298;9.056;2023-02-12T11:20:25;13.13;;;8.98;;
47589;SDS011;33316;52.298;9.056;2023-02-12T11:22:54;11.77;;;8.38;;
47589;SDS011;33316;52.298;9.056;2023-02-12T11:25:22;12.50;;;8.38;;
47589;SDS011;33316;52.298;9.056;2023-02-12T11:28:01;12.23;;;9.52;;
47589;SDS011;33316;52.298;9.056;2023-02-12T11:30:32;13.60;;;8.73;;
47589;SDS011;33316;52.298;9.056;2023-02-12T11:33:13;12.40;;;8.52;;
47589;SDS011;33316;52.298;9.056;2023-02-12T11:35:48;11.88;;;7.70;;
47589;SDS011;33316;52.298;9.056;2023-02-12T11:38:21;13.55;;;8.88;;
47589;SDS011;33316;52.298;9.056;2023-02-12T11:40:52;11.98;;;8.05;;
47589;SDS011;33316;52.298;9.056;2023-02-12T11:43:22;11.93;;;8.75;;
47589;SDS011;33316;52.298;9.056;2023-02-12T11:45:51;12.95;;;9.07;;
47589;SDS011;33316;52.298;9.056;2023-02-12T11:48:22;11.52;;;8.20;;
47589;SDS011;33316;52.298;9.056;2023-02-12T11:50:53;11.55;;;8.25;;
47589;SDS011;33316;52.298;9.056;2023-02-12T11:53:22;10.88;;;7.32;;
47589;SDS011;33316;52.298;9.056;2023-02-12T11:55:53;9.65;;;6.40;;
47589;SDS011;33316;52.298;9.056;2023-02-12T11:58:22;11.32;;;7.03;;
47589;SDS011;33316;52.298;9.056;2023-02-12T12:00:52;11.80;;;7.90;;
47589;SDS011;33316;52.298;9.056;2023-02-12T12:03:24;9.75;;;7.00;;
47589;SDS011;33316;52.298;9.056;2023-02-12T12:05:55;9.98;;;6.85;;
47589;SDS011;33316;52.298;9.056;2023-02-12T12:08:27;11.05;;;7.15;;
47589;SDS011;33316;52.298;9.056;2023-02-12T12:10:59;9.80;;;7.13;;
47589;SDS011;33316;52.298;9.056;2023-02-12T12:13:34;12.13;;;8.02;;
47589;SDS011;33316;52.298;9.056;2023-02-12T12:16:08;10.85;;;7.40;;
47589;SDS011;33316;52.298;9.056;2023-02-12T12:18:57;11.43;;;7.57;;
47589;SDS011;33316;52.298;9.056;2023-02-12T12:21:46;11.60;;;7.50;;
47589;SDS011;33316;52.298;9.056;2023-02-12T12:24:21;13.13;;;8.40;;
47589;SDS011;33316;52.298;9.056;2023-02-12T12:26:54;11.13;;;8.05;;
47589;SDS011;33316;52.298;9.056;2023-02-12T12:29:29;11.13;;;6.45;;
47589;SDS011;33316;52.298;9.056;2023-02-12T12:32:11;8.68;;;5.90;;
47589;SDS011;33316;52.298;9.056;2023-02-12T12:34:41;7.60;;;5.60;;
47589;SDS011;33316;52.298;9.056;2023-02-12T12:37:14;8.82;;;5.38;;
47589;SDS011;33316;52.298;9.056;2023-02-12T12:39:59;7.00;;;4.90;;
47589;SDS011;33316;52.298;9.056;2023-02-12T12:42:50;6.38;;;4.70;;
47589;SDS011;33316;52.298;9.056;2023-02-12T12:45:34;6.68;;;4.68;;
47589;SDS011;33316;52.298;9.056;2023-02-12T12:48:27;8.18;;;5.20;;
47589;SDS011;33316;52.298;9.056;2023-02-12T12:51:07;5.93;;;3.97;;
47589;SDS011;33316;52.298;9.056;2023-02-12T12:53:50;9.40;;;5.22;;
47589;SDS011;33316;52.298;9.056;2023-02-12T12:56:32;8.15;;;5.38;;
47589;SDS011;33316;52.298;9.056;2023-02-12T12:59:18;7.10;;;4.75;;
47589;SDS011;33316;52.298;9.056;2023-02-12T13:02:09;7.32;;;4.45;;
47589;SDS011;33316;52.298;9.056;2023-02-12T13:05:13;5.65;;;3.88;;
47589;SDS011;33316;52.298;9.056;2023-02-12T13:07:54;5.50;;;3.60;;
47589;SDS011;33316;52.298;9.056;2023-02-12T13:10:27;4.85;;;3.40;;
47589;SDS011;33316;52.298;9.056;2023-02-12T13:13:02;4.85;;;3.47;;
47589;SDS011;33316;52.298;9.056;2023-02-12T13:15:40;4.63;;;3.35;;
47589;SDS011;33316;52.298;9.056;2023-02-12T13:18:16;4.90;;;3.28;;
47589;SDS011;33316;52.298;9.056;2023-02-12T13:20:55;5.30;;;3.65;;
47589;SDS011;33316;52.298;9.056;2023-02-12T13:23:28;5.05;;;3.15;;
47589;SDS011;33316;52.298;9.056;2023-02-12T13:26:02;5.13;;;3.40;;
47589;SDS011;33316;52.298;9.056;2023-02-12T13:28:38;5.65;;;3.28;;
47589;SDS011;33316;52.298;9.056;2023-02-12T13:31:09;4.85;;;3.33;;
47589;SDS011;33316;52.298;9.056;2023-02-12T13:33:42;5.43;;;3.90;;
47589;SDS011;33316;52.298;9.056;2023-02-12T13:36:14;5.97;;;3.65;;
47589;SDS011;33316;52.298;9.056;2023-02-12T13:38:43;4.95;;;3.42;;
47589;SDS011;33316;52.298;9.056;2023-02-12T13:41:13;5.13;;;3.70;;
47589;SDS011;33316;52.298;9.056;2023-02-12T13:43:45;5.63;;;4.25;;
47589;SDS011;33316;52.298;9.056;2023-02-12T13:46:22;6.07;;;3.55;;
47589;SDS011;33316;52.298;9.056;2023-02-12T13:48:56;6.57;;;4.65;;
47589;SDS011;33316;52.298;9.056;2023-02-12T13:51:35;6.30;;;5.00;;
47589;SDS011;33316;52.298;9.056;2023-02-12T13:54:13;6.15;;;4.15;;
47589;SDS011;33316;52.298;9.056;2023-02-12T13:56:51;6.57;;;4.40;;
47589;SDS011;33316;52.298;9.056;2023-02-12T14:02:39;5.53;;;3.58;;
47589;SDS011;33316;52.298;9.056;2023-02-12T14:05:25;6.07;;;3.83;;
47589;SDS011;33316;52.298;9.056;2023-02-12T14:07:55;4.90;;;3.72;;
47589;SDS011;33316;52.298;9.056;2023-02-12T14:10:25;4.40;;;3.17;;
47589;SDS011;33316;52.298;9.056;2023-02-12T14:12:57;6.15;;;3.63;;
47589;SDS011;33316;52.298;9.056;2023-02-12T14:15:35;5.95;;;4.10;;
47589;SDS011;33316;52.298;9.056;2023-02-12T14:20:49;5.45;;;3.95;;
47589;SDS011;33316;52.298;9.056;2023-02-12T14:27:26;5.75;;;3.60;;
47589;SDS011;33316;52.298;9.056;2023-02-12T14:29:59;4.68;;;2.83;;
47589;SDS011;33316;52.298;9.056;2023-02-12T14:32:55;4.47;;;3.10;;
47589;SDS011;33316;52.298;9.056;2023-02-12T14:35:35;4.85;;;3.03;;
47589;SDS011;33316;52.298;9.056;2023-02-12T14:38:06;6.65;;;3.95;;
47589;SDS011;33316;52.298;9.056;2023-02-12T14:41:21;6.97;;;4.18;;
47589;SDS011;33316;52.298;9.056;2023-02-12T14:50:13;4.45;;;3.08;;
47589;SDS011;33316;52.298;9.056;2023-02-12T14:52:45;3.67;;;2.42;;
47589;SDS011;33316;52.298;9.056;2023-02-12T14:55:19;4.35;;;2.58;;
47589;SDS011;33316;52.298;9.056;2023-02-12T14:57:51;3.00;;;2.25;;
47589;SDS011;33316;52.298;9.056;2023-02-12T15:00:24;3.50;;;2.45;;
47589;SDS011;33316;52.298;9.056;2023-02-12T15:05:25;3.50;;;2.25;;
47589;SDS011;33316;52.298;9.056;2023-02-12T15:07:55;4.07;;;2.63;;
47589;SDS011;33316;52.298;9.056;2023-02-12T15:10:26;3.30;;;2.17;;
47589;SDS011;33316;52.298;9.056;2023-02-12T15:13:01;4.70;;;3.10;;
47589;SDS011;33316;52.298;9.056;2023-02-12T15:15:34;5.18;;;3.08;;
47589;SDS011;33316;52.298;9.056;2023-02-12T15:18:08;5.47;;;3.20;;
47589;SDS011;33316;52.298;9.056;2023-02-12T15:20:42;4.00;;;2.53;;
47589;SDS011;33316;52.298;9.056;2023-02-12T15:23:32;4.60;;;2.70;;
47589;SDS011;33316;52.298;9.056;2023-02-12T15:26:03;4.38;;;2.75;;
47589;SDS011;33316;52.298;9.056;2023-02-12T15:28:33;5.28;;;2.78;;
47589;SDS011;33316;52.298;9.056;2023-02-12T15:31:02;3.80;;;2.63;;
47589;SDS011;33316;52.298;9.056;2023-02-12T15:33:34;5.70;;;3.15;;
47589;SDS011;33316;52.298;9.056;2023-02-12T15:38:33;4.18;;;2.92;;
47589;SDS011;33316;52.298;9.056;2023-02-12T15:41:02;4.15;;;2.88;;
47589;SDS011;33316;52.298;9.056;2023-02-12T15:43:31;3.67;;;2.53;;
47589;SDS011;33316;52.298;9.056;2023-02-12T15:46:00;4.85;;;2.90;;
47589;SDS011;33316;52.298;9.056;2023-02-12T15:48:30;4.05;;;2.90;;
47589;SDS011;33316;52.298;9.056;2023-02-12T15:51:01;4.75;;;3.00;;
47589;SDS011;33316;52.298;9.056;2023-02-12T15:53:33;4.43;;;2.95;;